createdAt,value
2022-11-05T00:00:49.916Z,12.68
2022-11-05T00:03:35.734Z,12.82
2022-11-05T00:06:21.222Z,12.20
2022-11-05T00:09:06.369Z,11.73
2022-11-05T00:12:08.179Z,12.18
2022-11-05T00:14:53.335Z,11.98
2022-11-05T00:17:20.154Z,11.93
2022-11-05T00:19:46.974Z,12.25
2022-11-05T00:22:32.132Z,12.80
2022-11-05T00:25:14.056Z,12.50
2022-11-05T00:27:41.359Z,12.18
2022-11-05T00:30:09.559Z,11.40
2022-11-05T00:32:36.371Z,11.13
2022-11-05T00:35:03.281Z,10.88
2022-11-05T00:37:30.611Z,10.82
2022-11-05T00:39:57.416Z,11.68
2022-11-05T00:42:42.532Z,10.50
2022-11-05T00:45:10.376Z,12.18
2022-11-05T00:47:56.888Z,11.02
2022-11-05T00:50:24.543Z,10.55
2022-11-05T00:52:57.245Z,10.85
2022-11-05T00:55:33.238Z,10.23
2022-11-05T00:58:02.455Z,11.27
2022-11-05T01:00:31.976Z,10.68
2022-11-05T01:03:03.435Z,11.57
2022-11-05T01:05:31.259Z,10.55
2022-11-05T01:07:58.400Z,11.32
2022-11-05T01:10:25.865Z,10.50
2022-11-05T01:12:53.189Z,11.23
2022-11-05T01:15:21.810Z,11.60
2022-11-05T01:17:50.610Z,10.80
2022-11-05T01:20:17.637Z,12.30
2022-11-05T01:22:44.407Z,11.77
2022-11-05T01:25:11.329Z,11.60
2022-11-05T01:27:38.438Z,12.07
2022-11-05T01:30:08.340Z,11.10
2022-11-05T01:32:37.012Z,11.25
2022-11-05T01:35:06.650Z,11.00
2022-11-05T01:37:35.013Z,10.50
2022-11-05T01:40:02.053Z,11.52
2022-11-05T01:42:32.786Z,11.10
2022-11-05T01:45:09.055Z,10.68
2022-11-05T01:47:35.837Z,10.75
2022-11-05T01:50:31.605Z,10.15
2022-11-05T01:53:08.229Z,10.80
2022-11-05T01:55:41.922Z,10.90
2022-11-05T01:58:13.939Z,11.50
2022-11-05T02:00:42.588Z,9.48
2022-11-05T02:03:10.337Z,12.15
2022-11-05T02:05:39.799Z,11.55
2022-11-05T02:08:09.298Z,12.20
2022-11-05T02:10:36.366Z,10.63
2022-11-05T02:13:03.665Z,11.68
2022-11-05T02:16:09.768Z,12.25
2022-11-05T02:18:56.566Z,10.95
2022-11-05T02:21:56.542Z,10.70
2022-11-05T02:25:09.816Z,11.80
2022-11-05T02:28:13.540Z,9.43
2022-11-05T02:33:38.864Z,11.45
2022-11-05T02:36:55.562Z,11.73
2022-11-05T02:39:28.012Z,11.98
2022-11-05T02:42:07.240Z,11.27
2022-11-05T02:44:57.165Z,12.05
2022-11-05T02:47:51.507Z,11.68
2022-11-05T02:50:51.957Z,12.15
2022-11-05T02:53:47.769Z,12.15
2022-11-05T02:56:39.673Z,13.00
2022-11-05T02:59:06.500Z,13.40
2022-11-05T03:01:35.718Z,12.02
2022-11-05T03:04:06.821Z,13.18
2022-11-05T03:07:13.958Z,11.52
2022-11-05T03:10:19.904Z,11.20
2022-11-05T03:13:14.599Z,11.70
2022-11-05T03:16:25.146Z,11.60
2022-11-05T03:19:02.725Z,10.65
2022-11-05T03:21:42.474Z,11.80
2022-11-05T03:24:20.504Z,10.85
2022-11-05T03:27:19.857Z,11.48
2022-11-05T03:29:54.514Z,11.30
2022-11-05T03:32:22.660Z,11.07
2022-11-05T03:35:07.652Z,11.23
2022-11-05T03:37:38.714Z,11.15
2022-11-05T03:40:09.750Z,11.05
2022-11-05T03:42:41.266Z,10.82
2022-11-05T03:45:19.064Z,11.10
2022-11-05T03:47:50.607Z,10.68
2022-11-05T03:50:44.939Z,10.32
2022-11-05T03:53:23.146Z,10.63
2022-11-05T03:56:04.290Z,10.73
2022-11-05T03:58:31.941Z,11.35
2022-11-05T04:01:03.065Z,10.40
2022-11-05T04:03:36.167Z,10.98
2022-11-05T04:06:23.997Z,11.85
2022-11-05T04:09:09.632Z,11.18
2022-11-05T04:11:55.016Z,10.20
2022-11-05T04:14:21.858Z,10.48
2022-11-05T04:17:07.175Z,11.13
2022-11-05T04:20:01.477Z,10.88
2022-11-05T04:22:50.592Z,11.63
2022-11-05T04:25:19.150Z,9.98
2022-11-05T04:27:46.741Z,10.20
2022-11-05T04:30:18.828Z,9.98
2022-11-05T04:33:12.671Z,8.77
2022-11-05T04:35:48.761Z,11.25
2022-11-05T04:38:20.055Z,11.73
2022-11-05T04:40:48.030Z,11.32
2022-11-05T04:43:18.635Z,11.18
2022-11-05T04:45:46.391Z,12.07
2022-11-05T04:48:13.416Z,11.65
2022-11-05T04:50:40.245Z,12.65
2022-11-05T04:53:07.099Z,11.98
2022-11-05T04:55:33.897Z,14.73
2022-11-05T04:58:00.647Z,14.77
2022-11-05T05:00:27.541Z,12.38
2022-11-05T05:02:54.464Z,11.23
2022-11-05T05:05:22.776Z,10.95
2022-11-05T05:07:49.544Z,11.70
2022-11-05T05:10:16.519Z,12.35
2022-11-05T05:12:43.381Z,11.68
2022-11-05T05:15:10.332Z,12.20
2022-11-05T05:17:37.086Z,12.20
2022-11-05T05:20:22.849Z,12.20
2022-11-05T05:22:54.484Z,11.55
2022-11-05T05:25:21.935Z,11.38
2022-11-05T05:27:48.735Z,10.93
2022-11-05T05:30:15.801Z,11.32
2022-11-05T05:32:42.631Z,11.45
2022-11-05T05:35:09.996Z,10.85
2022-11-05T05:37:36.770Z,11.43
2022-11-05T05:40:03.784Z,11.00
2022-11-05T05:42:30.765Z,11.30
2022-11-05T05:44:57.524Z,11.70
2022-11-05T05:47:24.299Z,11.10
2022-11-05T05:49:51.062Z,11.80
2022-11-05T05:52:17.903Z,12.23
2022-11-05T05:54:44.732Z,11.68
2022-11-05T05:57:11.508Z,11.38
2022-11-05T05:59:38.251Z,12.60
2022-11-05T06:02:05.072Z,13.00
2022-11-05T06:04:31.913Z,11.52
2022-11-05T06:06:58.648Z,10.75
2022-11-05T06:09:25.438Z,12.10
2022-11-05T06:11:52.193Z,9.85
2022-11-05T06:14:18.958Z,9.93
2022-11-05T06:16:45.717Z,10.07
2022-11-05T06:19:12.457Z,10.15
2022-11-05T06:21:39.330Z,10.52
2022-11-05T06:24:06.608Z,11.35
2022-11-05T06:26:33.486Z,10.77
2022-11-05T06:29:00.286Z,10.60
2022-11-05T06:31:27.102Z,10.40
2022-11-05T06:33:53.906Z,9.82
2022-11-05T06:36:21.133Z,11.88
2022-11-05T06:38:47.908Z,11.95
2022-11-05T06:41:15.121Z,11.55
2022-11-05T06:43:41.951Z,11.30
2022-11-05T06:46:10.623Z,10.38
2022-11-05T06:48:37.849Z,12.45
2022-11-05T06:51:06.259Z,12.30
2022-11-05T06:53:33.034Z,11.23
2022-11-05T06:56:07.898Z,10.70
2022-11-05T06:58:34.989Z,10.30
2022-11-05T07:01:10.295Z,9.93
2022-11-05T07:03:38.403Z,10.35
2022-11-05T07:06:07.178Z,9.60
2022-11-05T07:08:35.673Z,9.75
2022-11-05T07:11:03.269Z,10.75
2022-11-05T07:13:30.349Z,10.02
2022-11-05T07:15:57.510Z,9.30
2022-11-05T07:18:24.467Z,9.32
2022-11-05T07:20:51.303Z,8.52
2022-11-05T07:23:18.121Z,8.68
2022-11-05T07:25:44.925Z,9.25
2022-11-05T07:28:12.015Z,8.90
2022-11-05T07:30:39.651Z,9.02
2022-11-05T07:33:06.508Z,8.07
2022-11-05T07:35:33.406Z,8.55
2022-11-05T07:38:00.270Z,8.80
2022-11-05T07:40:28.984Z,8.50
2022-11-05T07:42:59.329Z,8.98
2022-11-05T07:45:28.659Z,8.13
2022-11-05T07:47:58.784Z,8.43
2022-11-05T07:50:29.014Z,8.10
2022-11-05T07:53:04.755Z,7.85
2022-11-05T07:55:31.883Z,8.20
2022-11-05T07:57:59.033Z,8.75
2022-11-05T08:00:27.271Z,9.25
2022-11-05T08:03:14.731Z,8.85
2022-11-05T08:05:46.247Z,8.57
2022-11-05T08:08:16.443Z,8.88
2022-11-05T08:10:43.316Z,8.25
2022-11-05T08:13:10.778Z,9.02
2022-11-05T08:15:38.047Z,8.93
2022-11-05T08:18:17.152Z,9.10
2022-11-05T08:20:45.518Z,9.43
2022-11-05T08:23:12.866Z,9.05
2022-11-05T08:25:40.400Z,8.70
2022-11-05T08:28:11.284Z,8.70
2022-11-05T08:30:38.476Z,8.45
2022-11-05T08:33:11.895Z,8.57
2022-11-05T08:35:39.717Z,8.35
2022-11-05T08:38:09.788Z,9.00
2022-11-05T08:40:37.375Z,8.07
2022-11-05T08:43:07.196Z,9.02
2022-11-05T08:45:38.236Z,8.75
2022-11-05T08:48:13.073Z,8.98
2022-11-05T08:50:40.178Z,9.52
2022-11-05T08:53:08.786Z,9.02
2022-11-05T08:55:36.457Z,8.95
2022-11-05T08:58:06.581Z,10.75
2022-11-05T09:00:36.696Z,10.35
2022-11-05T09:03:06.378Z,10.73
2022-11-05T09:05:38.240Z,9.95
2022-11-05T09:08:10.260Z,9.52
2022-11-05T09:10:37.600Z,9.88
2022-11-05T09:13:04.880Z,10.20
2022-11-05T09:15:32.444Z,10.48
2022-11-05T09:17:59.834Z,9.90
2022-11-05T09:20:26.600Z,10.75
2022-11-05T09:22:53.666Z,11.30
2022-11-05T09:25:20.694Z,10.13
2022-11-05T09:27:47.814Z,9.38
2022-11-05T09:30:15.040Z,9.55
2022-11-05T09:32:42.286Z,11.40
2022-11-05T09:35:09.807Z,12.90
2022-11-05T09:37:37.970Z,8.88
2022-11-05T09:40:06.827Z,10.80
2022-11-05T09:42:41.750Z,12.68
2022-11-05T09:45:20.541Z,10.10
2022-11-05T09:47:56.996Z,10.63
2022-11-05T09:50:34.354Z,10.00
2022-11-05T09:53:01.933Z,9.63
2022-11-05T09:55:43.211Z,9.75
2022-11-05T09:58:34.644Z,8.93
2022-11-05T10:01:05.941Z,9.48
2022-11-05T10:03:35.470Z,11.57
2022-11-05T10:06:12.652Z,8.55
2022-11-05T10:08:43.342Z,8.18
2022-11-05T10:11:25.571Z,8.73
2022-11-05T10:14:00.148Z,6.85
2022-11-05T10:16:40.260Z,9.38
2022-11-05T10:19:22.531Z,9.27
2022-11-05T10:22:10.696Z,9.37
2022-11-05T10:24:42.507Z,11.32
2022-11-05T10:27:30.903Z,10.95
2022-11-05T10:29:59.149Z,10.73
2022-11-05T10:32:38.690Z,9.20
2022-11-05T10:35:09.207Z,8.65
2022-11-05T10:37:40.825Z,8.52
2022-11-05T10:40:40.088Z,10.75
2022-11-05T10:43:22.425Z,9.30
2022-11-05T10:46:13.882Z,8.70
2022-11-05T10:49:08.272Z,9.25
2022-11-05T10:51:36.370Z,8.27
2022-11-05T10:54:19.176Z,9.23
2022-11-05T10:56:46.761Z,8.27
2022-11-05T10:59:26.920Z,8.77
2022-11-05T11:02:03.674Z,8.07
2022-11-05T11:04:37.445Z,9.50
2022-11-05T11:07:05.837Z,8.30
2022-11-05T11:09:36.129Z,8.73
2022-11-05T11:12:27.569Z,9.02
2022-11-05T11:15:20.545Z,10.45
2022-11-05T11:17:47.854Z,7.40
2022-11-05T11:20:27.407Z,9.68
2022-11-05T11:23:16.763Z,9.60
2022-11-05T11:26:00.656Z,9.70
2022-11-05T11:28:53.892Z,10.13
2022-11-05T11:31:30.924Z,9.98
2022-11-05T11:34:03.173Z,9.30
2022-11-05T11:36:42.821Z,9.65
2022-11-05T11:39:18.534Z,9.52
2022-11-05T11:41:50.588Z,9.98
2022-11-05T11:44:27.423Z,8.60
2022-11-05T11:47:12.475Z,9.02
2022-11-05T11:49:49.801Z,8.82
2022-11-05T11:52:27.402Z,9.23
2022-11-05T11:55:13.709Z,10.85
2022-11-05T11:57:50.153Z,9.52
2022-11-05T12:00:20.365Z,9.90
2022-11-05T12:02:54.804Z,9.50
2022-11-05T12:05:53.429Z,9.43
2022-11-05T12:08:42.880Z,9.93
2022-11-05T12:11:48.398Z,10.43
2022-11-05T12:14:54.962Z,10.35
2022-11-05T12:17:48.920Z,10.20
2022-11-05T12:20:50.788Z,10.43
2022-11-05T12:24:09.711Z,11.02
2022-11-05T12:26:57.086Z,10.30
2022-11-05T12:29:47.279Z,10.32
2022-11-05T12:32:52.158Z,9.57
2022-11-05T12:35:58.218Z,9.88
2022-11-05T12:38:59.038Z,9.93
2022-11-05T12:41:37.914Z,9.63
2022-11-05T12:44:32.545Z,9.05
2022-11-05T12:47:40.708Z,8.77
2022-11-05T12:50:33.202Z,9.52
2022-11-05T12:53:35.251Z,8.55
2022-11-05T12:56:31.009Z,8.75
2022-11-05T12:59:13.010Z,8.60
2022-11-05T13:01:53.608Z,9.73
2022-11-05T13:04:50.450Z,8.10
2022-11-05T13:07:26.349Z,8.20
2022-11-05T13:10:18.902Z,8.80
2022-11-05T13:12:58.488Z,4.88
2022-11-05T13:15:31.173Z,7.63
2022-11-05T13:18:16.779Z,7.85
2022-11-05T13:20:49.705Z,8.60
2022-11-05T13:23:32.525Z,7.70
2022-11-05T13:26:19.813Z,8.55
2022-11-05T13:28:59.533Z,8.63
2022-11-05T13:31:34.338Z,8.02
2022-11-05T13:34:08.616Z,7.63
2022-11-05T13:37:12.869Z,7.85
2022-11-05T13:39:50.690Z,6.97
2022-11-05T13:42:44.054Z,8.23
2022-11-05T13:45:35.353Z,8.38
2022-11-05T13:48:25.673Z,8.43
2022-11-05T13:51:10.550Z,7.85
2022-11-05T13:53:59.870Z,7.95
2022-11-05T13:56:56.756Z,8.77
2022-11-05T13:59:30.301Z,8.23
2022-11-05T14:01:59.431Z,8.20
2022-11-05T14:04:26.277Z,8.68
2022-11-05T14:06:53.792Z,8.50
2022-11-05T14:09:27.386Z,8.77
2022-11-05T14:11:57.122Z,9.65
2022-11-05T14:14:44.647Z,8.40
2022-11-05T14:17:34.511Z,8.43
2022-11-05T14:20:04.475Z,8.23
2022-11-05T14:22:31.194Z,8.93
2022-11-05T14:25:23.054Z,8.93
2022-11-05T14:27:52.432Z,9.00
2022-11-05T14:30:41.561Z,8.95
2022-11-05T14:33:28.517Z,8.30
2022-11-05T14:36:26.435Z,8.63
2022-11-05T14:39:03.054Z,8.75
2022-11-05T14:41:31.069Z,8.05
2022-11-05T14:44:05.496Z,9.60
2022-11-05T14:46:46.989Z,9.43
2022-11-05T14:49:26.041Z,9.57
2022-11-05T14:52:00.234Z,10.68
2022-11-05T14:54:37.252Z,10.20
2022-11-05T14:57:04.394Z,9.85
2022-11-05T14:59:50.083Z,9.55
2022-11-05T15:02:23.062Z,9.18
2022-11-05T15:07:22.535Z,8.85
2022-11-05T15:10:11.775Z,9.63
2022-11-05T15:12:47.867Z,11.40
2022-11-05T15:15:24.858Z,10.35
2022-11-05T15:18:30.532Z,10.02
2022-11-05T15:21:01.122Z,10.45
2022-11-05T15:23:39.178Z,9.75
2022-11-05T15:26:23.537Z,10.40
2022-11-05T15:28:55.592Z,11.55
2022-11-05T15:31:39.383Z,11.13
2022-11-05T15:34:35.478Z,11.98
2022-11-05T15:37:21.613Z,10.48
2022-11-05T15:39:50.795Z,10.27
2022-11-05T15:42:23.581Z,10.20
2022-11-05T15:44:53.961Z,13.38
2022-11-05T15:47:30.830Z,10.85
2022-11-05T15:50:15.309Z,12.93
2022-11-05T15:52:53.787Z,11.77
2022-11-05T15:55:26.227Z,11.57
2022-11-05T15:58:04.354Z,11.25
2022-11-05T16:00:36.245Z,12.77
2022-11-05T16:03:16.040Z,14.20
2022-11-05T16:05:46.938Z,18.38
2022-11-05T16:10:58.890Z,18.23
2022-11-05T16:13:35.806Z,16.13
2022-11-05T16:16:06.950Z,13.93
2022-11-05T16:18:38.696Z,12.45
2022-11-05T16:21:14.306Z,11.88
2022-11-05T16:23:49.986Z,11.43
2022-11-05T16:26:55.809Z,12.30
2022-11-05T16:29:38.992Z,16.38
2022-11-05T16:32:31.307Z,14.00
2022-11-05T16:35:05.018Z,12.93
2022-11-05T16:37:40.017Z,12.95
2022-11-05T16:40:18.271Z,49.25
2022-11-05T16:42:48.401Z,44.20
2022-11-05T16:45:18.113Z,28.42
2022-11-05T16:47:45.580Z,28.25
2022-11-05T16:50:25.675Z,33.42
2022-11-05T16:52:52.602Z,15.32
2022-11-05T16:55:20.435Z,19.02
2022-11-05T16:57:52.444Z,13.82
2022-11-05T17:00:21.431Z,12.25
2022-11-05T17:02:48.436Z,12.77
2022-11-05T17:05:24.215Z,13.10
2022-11-05T17:07:51.917Z,12.38
2022-11-05T17:10:20.468Z,12.65
2022-11-05T17:12:48.146Z,13.45
2022-11-05T17:15:29.462Z,14.55
2022-11-05T17:17:57.212Z,13.40
2022-11-05T17:20:32.572Z,14.77
2022-11-05T17:23:04.226Z,16.63
2022-11-05T17:25:31.866Z,23.98
2022-11-05T17:27:59.213Z,21.05
2022-11-05T17:30:26.207Z,26.40
2022-11-05T17:32:53.751Z,35.45
2022-11-05T17:35:21.385Z,16.35
2022-11-05T17:37:49.243Z,17.27
2022-11-05T17:40:19.813Z,17.02
2022-11-05T17:42:47.423Z,16.25
2022-11-05T17:45:15.359Z,16.17
2022-11-05T17:47:42.911Z,17.30
2022-11-05T17:50:14.080Z,16.27
2022-11-05T17:52:41.177Z,17.92
2022-11-05T17:55:16.773Z,13.50
2022-11-05T17:57:50.551Z,12.98
2022-11-05T18:00:21.782Z,15.35
2022-11-05T18:02:49.519Z,13.68
2022-11-05T18:05:21.825Z,13.68
2022-11-05T18:07:49.833Z,11.68
2022-11-05T18:10:17.183Z,13.68
2022-11-05T18:12:45.781Z,13.73
2022-11-05T18:15:13.954Z,13.57
2022-11-05T18:17:41.236Z,12.88
2022-11-05T18:20:17.378Z,13.00
2022-11-05T18:22:46.248Z,12.15
2022-11-05T18:25:13.931Z,11.93
2022-11-05T18:27:41.411Z,11.40
2022-11-05T18:30:10.160Z,11.20
2022-11-05T18:32:37.581Z,11.32
2022-11-05T18:35:04.883Z,12.68
2022-11-05T18:37:31.797Z,13.23
2022-11-05T18:39:58.638Z,12.43
2022-11-05T18:42:25.438Z,12.43
2022-11-05T18:44:52.293Z,11.82
2022-11-05T18:47:19.200Z,11.50
2022-11-05T18:49:46.053Z,11.25
2022-11-05T18:52:13.214Z,14.18
2022-11-05T18:54:40.154Z,12.10
2022-11-05T18:57:06.974Z,11.38
2022-11-05T18:59:39.237Z,13.45
2022-11-05T19:02:08.691Z,13.07
2022-11-05T19:04:37.106Z,11.60
2022-11-05T19:07:05.738Z,12.27
2022-11-05T19:09:34.861Z,11.63
2022-11-05T19:12:02.708Z,12.15
2022-11-05T19:14:30.242Z,11.95
2022-11-05T19:16:59.171Z,13.13
2022-11-05T19:19:26.257Z,12.32
2022-11-05T19:21:53.126Z,13.55
2022-11-05T19:24:20.394Z,14.55
2022-11-05T19:26:48.007Z,13.85
2022-11-05T19:29:14.891Z,12.40
2022-11-05T19:31:41.931Z,11.43
2022-11-05T19:34:08.769Z,12.85
2022-11-05T19:36:35.733Z,12.93
2022-11-05T19:39:08.806Z,13.77
2022-11-05T19:44:02.886Z,14.60
2022-11-05T19:46:31.637Z,14.00
2022-11-05T19:49:01.030Z,11.45
2022-11-05T19:51:31.434Z,11.60
2022-11-05T19:54:02.772Z,11.95
2022-11-05T19:56:33.141Z,12.27
2022-11-05T19:59:01.145Z,10.73
2022-11-05T20:01:30.274Z,10.95
2022-11-05T20:03:59.497Z,11.75
2022-11-05T20:06:34.389Z,10.50
2022-11-05T20:09:22.980Z,10.60
2022-11-05T20:11:53.865Z,11.25
2022-11-05T20:14:20.818Z,12.93
2022-11-05T20:16:48.787Z,14.73
2022-11-05T20:19:19.743Z,15.23
2022-11-05T20:21:46.854Z,13.45
2022-11-05T20:24:23.599Z,14.07
2022-11-05T20:26:52.190Z,13.05
2022-11-05T20:29:20.657Z,13.38
2022-11-05T20:31:48.676Z,12.75
2022-11-05T20:34:15.961Z,13.38
2022-11-05T20:36:43.038Z,12.00
2022-11-05T20:39:11.924Z,11.02
2022-11-05T20:41:38.951Z,11.90
2022-11-05T20:44:05.868Z,12.18
2022-11-05T20:46:33.135Z,11.35
2022-11-05T20:49:00.049Z,11.20
2022-11-05T20:51:27.107Z,11.30
2022-11-05T20:53:56.586Z,11.32
2022-11-05T20:56:27.767Z,11.18
2022-11-05T20:58:58.454Z,10.77
2022-11-05T21:01:27.624Z,9.95
2022-11-05T21:03:55.160Z,10.25
2022-11-05T21:06:22.212Z,10.25
2022-11-05T21:08:50.912Z,11.60
2022-11-05T21:11:19.136Z,10.48
2022-11-05T21:13:47.004Z,11.27
2022-11-05T21:16:18.528Z,10.82
2022-11-05T21:18:46.887Z,12.00
2022-11-05T21:21:18.158Z,11.80
2022-11-05T21:23:45.428Z,11.52
2022-11-05T21:26:14.945Z,11.65
2022-11-05T21:28:42.507Z,11.85
2022-11-05T21:31:10.412Z,10.85
2022-11-05T21:33:37.762Z,11.75
2022-11-05T21:36:12.613Z,11.73
2022-11-05T21:38:40.661Z,12.65
2022-11-05T21:41:10.199Z,12.07
2022-11-05T21:43:39.882Z,12.63
2022-11-05T21:46:06.845Z,12.15
2022-11-05T21:48:33.971Z,12.57
2022-11-05T21:51:19.805Z,12.25
2022-11-05T21:54:05.280Z,12.38
2022-11-05T21:56:51.299Z,13.18
2022-11-05T21:59:40.393Z,12.10
2022-11-05T22:02:09.787Z,12.13
2022-11-05T22:04:40.647Z,12.75
2022-11-05T22:07:10.557Z,13.65
2022-11-05T22:09:37.465Z,12.82
2022-11-05T22:12:05.496Z,12.15
2022-11-05T22:14:32.595Z,11.20
2022-11-05T22:16:59.818Z,11.35
2022-11-05T22:19:27.715Z,11.52
2022-11-05T22:21:54.714Z,11.15
2022-11-05T22:24:21.932Z,11.80
2022-11-05T22:26:49.243Z,10.15
2022-11-05T22:29:16.910Z,11.98
2022-11-05T22:31:43.847Z,11.75
2022-11-05T22:34:11.680Z,12.02
2022-11-05T22:36:38.826Z,11.38
2022-11-05T22:39:05.837Z,11.45
2022-11-05T22:41:33.491Z,11.23
2022-11-05T22:44:00.562Z,10.73
2022-11-05T22:46:27.625Z,10.57
2022-11-05T22:48:55.970Z,10.98
2022-11-05T22:51:27.149Z,11.55
2022-11-05T22:53:54.813Z,10.40
2022-11-05T22:56:25.715Z,10.57
2022-11-05T22:58:53.116Z,10.70
2022-11-05T23:01:21.521Z,10.68
2022-11-05T23:03:50.606Z,10.80
2022-11-05T23:07:01.992Z,11.18
2022-11-05T23:09:52.509Z,18.60
2022-11-05T23:12:31.707Z,17.42
2022-11-05T23:15:01.791Z,12.73
2022-11-05T23:17:47.948Z,11.85
2022-11-05T23:20:38.133Z,13.40
2022-11-05T23:23:29.667Z,12.23
2022-11-05T23:26:21.237Z,10.80
2022-11-05T23:28:48.024Z,10.80
2022-11-05T23:31:33.125Z,10.85
2022-11-05T23:33:59.878Z,11.07
2022-11-05T23:36:55.792Z,9.75
2022-11-05T23:39:22.542Z,10.23
2022-11-05T23:42:07.565Z,11.30
2022-11-05T23:44:52.788Z,12.00
2022-11-05T23:47:38.078Z,10.88
2022-11-05T23:50:05.316Z,9.93
2022-11-05T23:52:32.132Z,11.52
2022-11-05T23:54:58.878Z,10.90
2022-11-05T23:57:25.660Z,10.05
2022-11-05T23:59:52.433Z,10.45
